createdAt,value
2022-08-18T00:02:50.688Z,2.86
2022-08-18T00:07:58.131Z,2.86
2022-08-18T00:13:06.652Z,2.86
2022-08-18T00:18:14.163Z,2.86
2022-08-18T00:23:20.627Z,2.86
2022-08-18T00:28:28.704Z,2.86
2022-08-18T00:33:37.152Z,2.86
2022-08-18T00:38:44.075Z,2.86
2022-08-18T00:43:51.876Z,2.86
2022-08-18T00:48:59.777Z,2.86
2022-08-18T00:54:07.547Z,2.86
2022-08-18T00:59:14.364Z,2.86
2022-08-18T01:04:22.521Z,2.86
2022-08-18T01:09:29.857Z,2.86
2022-08-18T01:14:37.750Z,2.86
2022-08-18T01:19:45.500Z,2.86
2022-08-18T01:24:52.142Z,2.86
2022-08-18T01:30:00.578Z,2.86
2022-08-18T01:35:07.761Z,2.86
2022-08-18T01:40:14.329Z,2.86
2022-08-18T01:45:22.823Z,2.86
2022-08-18T01:55:04.653Z,2.85
2022-08-18T02:00:10.500Z,2.85
2022-08-18T02:05:17.479Z,2.86
2022-08-18T02:10:24.901Z,2.86
2022-08-18T02:15:32.840Z,2.86
2022-08-18T02:21:16.478Z,2.86
2022-08-18T02:26:23.656Z,2.86
2022-08-18T02:31:30.780Z,2.86
2022-08-18T02:36:38.543Z,2.86
2022-08-18T02:41:46.999Z,2.86
2022-08-18T02:46:55.523Z,2.86
2022-08-18T02:52:03.280Z,2.86
2022-08-18T02:57:10.307Z,2.86
2022-08-18T03:02:18.372Z,2.86
2022-08-18T03:07:26.739Z,2.86
2022-08-18T03:12:35.060Z,2.85
2022-08-18T03:17:43.511Z,2.86
2022-08-18T03:22:50.459Z,2.85
2022-08-18T03:27:58.794Z,2.86
2022-08-18T03:33:06.435Z,2.85
2022-08-18T03:38:14.462Z,2.84
2022-08-18T03:43:21.572Z,2.85
2022-08-18T03:48:29.040Z,2.85
2022-08-18T03:53:36.460Z,2.85
2022-08-18T03:58:44.154Z,2.86
2022-08-18T04:03:51.974Z,2.85
2022-08-18T04:08:59.779Z,2.85
2022-08-18T04:14:08.261Z,2.86
2022-08-18T04:19:15.915Z,2.85
2022-08-18T04:24:24.613Z,2.85
2022-08-18T04:29:33.060Z,2.86
2022-08-18T04:34:41.716Z,2.86
2022-08-18T04:39:50.007Z,2.86
2022-08-18T04:44:57.859Z,2.86
2022-08-18T04:50:05.057Z,2.86
2022-08-18T04:55:12.860Z,2.87
2022-08-18T05:00:20.875Z,2.88
2022-08-18T05:05:28.540Z,2.89
2022-08-18T05:10:36.720Z,2.89
2022-08-18T05:15:43.955Z,2.9
2022-08-18T05:21:07.395Z,2.9
2022-08-18T05:21:23.797Z,2.9
2022-08-18T05:26:20.897Z,2.9
2022-08-18T05:31:28.939Z,2.91
2022-08-18T05:36:36.845Z,2.92
2022-08-18T05:41:46.204Z,2.92
2022-08-18T05:46:54.313Z,2.91
2022-08-18T05:52:01.541Z,2.92
2022-08-18T05:57:10.714Z,2.92
2022-08-18T06:02:18.075Z,2.92
2022-08-18T06:07:26.872Z,2.93
2022-08-18T06:12:34.213Z,2.93
2022-08-18T06:17:41.375Z,2.92
2022-08-18T06:22:49.178Z,2.93
2022-08-18T06:27:56.658Z,2.93
2022-08-18T06:33:05.501Z,2.94
2022-08-18T06:38:12.943Z,2.93
2022-08-18T06:43:20.143Z,2.92
2022-08-18T06:48:27.971Z,2.93
2022-08-18T06:53:35.329Z,2.93
2022-08-18T06:58:42.886Z,2.94
2022-08-18T07:03:51.258Z,2.92
2022-08-18T07:08:57.853Z,2.93
2022-08-18T07:14:06.806Z,2.92
2022-08-18T07:19:15.065Z,2.92
2022-08-18T07:24:23.829Z,2.92
2022-08-18T07:29:33.913Z,2.92
2022-08-18T07:34:42.285Z,2.92
2022-08-18T07:39:50.247Z,2.93
2022-08-18T07:44:57.818Z,2.94
2022-08-18T07:50:05.638Z,2.94
2022-08-18T07:55:14.009Z,2.93
2022-08-18T08:00:22.494Z,2.94
2022-08-18T08:05:31.311Z,2.94
2022-08-18T08:10:39.549Z,2.93
2022-08-18T08:15:47.654Z,2.94
2022-08-18T08:20:56.937Z,2.94
2022-08-18T08:26:04.517Z,2.94
2022-08-18T08:31:11.869Z,2.94
2022-08-18T08:36:19.765Z,2.93
2022-08-18T08:41:27.673Z,2.93
2022-08-18T08:46:34.821Z,2.94
2022-08-18T08:51:42.965Z,2.92
2022-08-18T08:56:51.397Z,2.94
2022-08-18T09:01:58.792Z,2.95
2022-08-18T09:07:06.437Z,2.93
2022-08-18T09:12:13.664Z,2.94
2022-08-18T09:17:21.195Z,2.95
2022-08-18T09:22:29.210Z,2.94
2022-08-18T09:27:36.871Z,2.94
2022-08-18T09:32:44.874Z,2.93
2022-08-18T09:37:52.796Z,2.93
2022-08-18T09:43:00.671Z,2.94
2022-08-18T09:48:08.293Z,2.94
2022-08-18T09:53:16.893Z,2.95
2022-08-18T09:58:24.285Z,2.95
2022-08-18T10:03:31.453Z,2.95
2022-08-18T10:08:39.896Z,2.95
2022-08-18T10:13:46.748Z,2.95
2022-08-18T10:18:55.622Z,2.96
2022-08-18T10:24:02.298Z,2.94
2022-08-18T10:29:09.951Z,2.94
2022-08-18T10:34:17.931Z,2.95
2022-08-18T10:39:25.700Z,2.94
2022-08-18T10:44:33.352Z,2.94
2022-08-18T10:49:41.857Z,2.95
2022-08-18T10:54:49.221Z,2.95
2022-08-18T10:59:55.941Z,2.95
2022-08-18T11:05:03.815Z,2.95
2022-08-18T11:10:11.162Z,2.96
2022-08-18T11:15:19.062Z,2.95
2022-08-18T11:20:27.143Z,2.96
2022-08-18T11:25:33.702Z,2.96
2022-08-18T11:30:42.660Z,2.95
2022-08-18T11:35:50.762Z,2.95
2022-08-18T11:40:58.330Z,2.96
2022-08-18T11:46:04.481Z,2.95
2022-08-18T11:51:11.790Z,2.96
2022-08-18T11:56:18.140Z,2.95
2022-08-18T12:01:24.903Z,2.96
2022-08-18T12:06:32.543Z,2.95
2022-08-18T12:11:40.101Z,2.95
2022-08-18T12:16:48.648Z,2.95
2022-08-18T12:21:57.022Z,2.95
2022-08-18T12:27:03.986Z,2.95
2022-08-18T12:32:12.480Z,2.95
2022-08-18T12:37:19.712Z,2.96
2022-08-18T12:42:27.674Z,2.95
2022-08-18T12:47:34.766Z,2.95
2022-08-18T12:52:41.222Z,2.96
2022-08-18T12:57:49.060Z,2.96
2022-08-18T13:02:56.241Z,2.96
2022-08-18T13:08:03.461Z,2.95
2022-08-18T13:13:11.963Z,2.95
2022-08-18T13:18:20.379Z,2.95
2022-08-18T13:23:26.968Z,2.96
2022-08-18T13:28:34.131Z,2.96
2022-08-18T13:33:42.008Z,2.96
2022-08-18T13:38:48.929Z,2.96
2022-08-18T13:43:56.693Z,2.95
2022-08-18T13:49:06.687Z,2.95
2022-08-18T13:54:14.959Z,2.95
2022-08-18T13:59:22.811Z,2.96
2022-08-18T14:04:30.048Z,2.96
2022-08-18T14:09:36.897Z,2.96
2022-08-18T14:14:44.368Z,2.95
2022-08-18T14:19:52.644Z,2.96
2022-08-18T14:25:00.380Z,2.96
2022-08-18T14:30:08.213Z,2.96
2022-08-18T14:35:15.060Z,2.95
2022-08-18T14:40:22.472Z,2.95
2022-08-18T14:45:58.092Z,2.96
2022-08-18T14:50:38.318Z,2.95
2022-08-18T14:55:45.517Z,2.95
2022-08-18T15:00:54.275Z,2.94
2022-08-18T15:06:02.072Z,2.95
2022-08-18T15:11:09.963Z,2.95
2022-08-18T15:16:16.786Z,2.95
2022-08-18T15:21:23.489Z,2.95
2022-08-18T15:26:30.681Z,2.94
2022-08-18T15:31:37.883Z,2.94
2022-08-18T15:36:51.316Z,2.93
2022-08-18T15:41:56.686Z,2.9
2022-08-18T15:47:03.246Z,2.88
2022-08-18T15:52:11.534Z,2.86
2022-08-18T15:57:20.068Z,2.86
2022-08-18T16:02:27.993Z,2.87
2022-08-18T16:07:35.837Z,2.86
2022-08-18T16:12:43.492Z,2.86
2022-08-18T16:17:50.931Z,2.86
2022-08-18T16:22:57.495Z,2.86
2022-08-18T16:28:04.697Z,2.87
2022-08-18T16:33:11.899Z,2.86
2022-08-18T16:38:19.547Z,2.86
2022-08-18T16:43:27.039Z,2.86
2022-08-18T16:48:34.773Z,2.87
2022-08-18T16:53:43.156Z,2.86
2022-08-18T16:58:51.610Z,2.86
2022-08-18T17:03:58.337Z,2.87
2022-08-18T17:09:06.081Z,2.86
2022-08-18T17:14:14.219Z,2.86
2022-08-18T17:19:21.383Z,2.86
2022-08-18T17:24:28.404Z,2.87
2022-08-18T17:29:37.128Z,2.86
2022-08-18T17:34:44.675Z,2.87
2022-08-18T17:39:51.368Z,2.86
2022-08-18T17:44:59.143Z,2.87
2022-08-18T17:50:06.353Z,2.87
2022-08-18T17:55:14.075Z,2.86
2022-08-18T18:00:22.702Z,2.86
2022-08-18T18:05:28.637Z,2.87
2022-08-18T18:10:35.739Z,2.86
2022-08-18T18:15:42.296Z,2.86
2022-08-18T18:20:50.085Z,2.87
2022-08-18T18:25:56.674Z,2.87
2022-08-18T18:31:03.391Z,2.88
2022-08-18T18:36:10.432Z,2.87
2022-08-18T18:41:18.355Z,2.86
2022-08-18T18:46:25.117Z,2.86
2022-08-18T18:51:33.761Z,2.86
2022-08-18T18:56:40.566Z,2.86
2022-08-18T19:01:47.743Z,2.87
2022-08-18T19:06:54.967Z,2.86
2022-08-18T19:12:02.661Z,2.86
2022-08-18T19:17:10.125Z,2.86
2022-08-18T19:22:17.586Z,2.86
2022-08-18T19:27:24.843Z,2.86
2022-08-18T19:32:31.726Z,2.86
2022-08-18T19:37:38.814Z,2.86
2022-08-18T19:42:46.038Z,2.86
2022-08-18T19:47:54.204Z,2.86
2022-08-18T19:53:01.068Z,2.86
2022-08-18T19:58:08.875Z,2.86
2022-08-18T20:03:15.828Z,2.86
2022-08-18T20:08:22.125Z,2.86
2022-08-18T20:13:29.851Z,2.86
2022-08-18T20:18:37.051Z,2.85
2022-08-18T20:23:44.643Z,2.86
2022-08-18T20:28:53.138Z,2.86
2022-08-18T20:34:00.172Z,2.86
2022-08-18T20:39:07.081Z,2.86
2022-08-18T20:44:15.074Z,2.87
2022-08-18T20:49:22.203Z,2.86
2022-08-18T20:54:30.347Z,2.86
2022-08-18T20:59:37.813Z,2.86
2022-08-18T21:04:45.754Z,2.85
2022-08-18T21:09:53.692Z,2.86
2022-08-18T21:15:01.917Z,2.86
2022-08-18T21:20:09.000Z,2.85
2022-08-18T21:25:17.884Z,2.86
2022-08-18T21:30:24.217Z,2.85
2022-08-18T21:35:32.092Z,2.85
2022-08-18T21:40:39.899Z,2.86
2022-08-18T21:45:47.290Z,2.86
2022-08-18T21:50:54.562Z,2.85
2022-08-18T21:56:01.235Z,2.85
2022-08-18T22:01:09.227Z,2.85
2022-08-18T22:06:17.047Z,2.85
2022-08-18T22:11:25.257Z,2.85
2022-08-18T22:16:32.839Z,2.86
2022-08-18T22:21:40.506Z,2.85
2022-08-18T22:26:48.135Z,2.84
2022-08-18T22:32:00.652Z,2.84
2022-08-18T22:38:40.928Z,2.86
2022-08-18T22:43:47.927Z,2.86
2022-08-18T22:48:55.237Z,2.86
2022-08-18T22:54:03.593Z,2.86
2022-08-18T22:59:10.956Z,2.86
2022-08-18T23:04:17.520Z,2.87
2022-08-18T23:09:24.952Z,2.85
2022-08-18T23:14:32.520Z,2.86
2022-08-18T23:19:40.314Z,2.86
2022-08-18T23:24:48.242Z,2.86
2022-08-18T23:30:31.278Z,2.85
2022-08-18T23:35:40.338Z,2.86
2022-08-18T23:40:48.159Z,2.85
2022-08-18T23:45:56.566Z,2.85
2022-08-18T23:51:05.662Z,2.86
2022-08-18T23:56:13.055Z,2.85
